createdAt,value
2017-12-11T00:00:13.524Z,97433.41
2017-12-11T00:02:43.954Z,97451.00
2017-12-11T00:05:12.578Z,97466.45
2017-12-11T00:07:40.906Z,97471.16
2017-12-11T00:10:09.187Z,97476.42
2017-12-11T00:12:37.520Z,97477.47
2017-12-11T00:15:05.893Z,97478.62
2017-12-11T00:17:34.246Z,97484.91
2017-12-11T00:20:02.545Z,97477.49
2017-12-11T00:22:47.780Z,97487.58
2017-12-11T00:25:16.100Z,97489.12
2017-12-11T00:27:44.470Z,97496.45
2017-12-11T00:30:13.653Z,97502.42
2017-12-11T00:32:41.954Z,97506.65
2017-12-11T00:35:10.258Z,97508.30
2017-12-11T00:37:39.735Z,97507.16
2017-12-11T00:40:08.078Z,97506.34
2017-12-11T00:42:36.433Z,97515.41
2017-12-11T00:45:05.892Z,97517.16
2017-12-11T00:47:34.277Z,97520.64
2017-12-11T00:50:18.279Z,97531.50
2017-12-11T00:52:46.620Z,97529.66
2017-12-11T00:57:50.867Z,97545.93
2017-12-11T01:00:19.948Z,97562.74
2017-12-11T01:02:48.379Z,97557.03
2017-12-11T01:05:17.277Z,97561.41
2017-12-11T01:07:45.642Z,97557.60
2017-12-11T01:10:13.975Z,97565.05
2017-12-11T01:12:42.348Z,97572.23
2017-12-11T01:17:45.385Z,97579.34
2017-12-11T01:20:13.734Z,97583.00
2017-12-11T01:22:42.059Z,97589.62
2017-12-11T01:25:10.616Z,97596.85
2017-12-11T01:27:39.669Z,97600.16
2017-12-11T01:30:09.664Z,97608.59
2017-12-11T01:32:38.025Z,97611.86
2017-12-11T01:35:06.359Z,97624.70
2017-12-11T01:37:34.691Z,97626.66
2017-12-11T01:40:03.074Z,97636.14
2017-12-11T01:42:31.374Z,97646.73
2017-12-11T01:44:59.672Z,97651.09
2017-12-11T01:47:28.207Z,97656.70
2017-12-11T01:49:56.522Z,97655.14
2017-12-11T01:52:24.850Z,97664.70
2017-12-11T01:54:53.954Z,97666.53
2017-12-11T01:57:22.275Z,97668.45
2017-12-11T01:59:50.619Z,97675.89
2017-12-11T02:02:18.988Z,97676.37
2017-12-11T02:04:47.304Z,97688.41
2017-12-11T02:07:15.931Z,97699.55
2017-12-11T02:09:45.511Z,97707.28
2017-12-11T02:12:13.806Z,97714.16
2017-12-11T02:14:42.228Z,97728.64
2017-12-11T02:17:10.558Z,97735.84
2017-12-11T02:19:38.854Z,97743.16
2017-12-11T02:22:07.928Z,97749.48
2017-12-11T02:24:36.506Z,97750.56
2017-12-11T02:27:04.814Z,97757.20
2017-12-11T02:29:33.942Z,97756.90
2017-12-11T02:32:02.500Z,97768.28
2017-12-11T02:34:30.840Z,97769.83
2017-12-11T02:36:59.938Z,97787.69
2017-12-11T02:39:28.327Z,97799.47
2017-12-11T02:41:56.665Z,97802.22
2017-12-11T02:44:24.978Z,97815.78
2017-12-11T02:46:53.329Z,97826.97
2017-12-11T02:49:21.643Z,97826.81
2017-12-11T02:51:49.981Z,97836.47
2017-12-11T02:54:18.605Z,97844.27
2017-12-11T02:56:46.935Z,97846.41
2017-12-11T02:59:15.241Z,97843.70
2017-12-11T03:01:44.043Z,97859.25
2017-12-11T03:04:12.400Z,97867.37
2017-12-11T03:06:40.729Z,97870.83
2017-12-11T03:09:10.095Z,97875.36
2017-12-11T03:11:38.412Z,97859.19
2017-12-11T03:14:07.491Z,97857.59
2017-12-11T03:16:37.046Z,97868.25
2017-12-11T03:19:05.385Z,97873.97
2017-12-11T03:21:34.525Z,97873.90
2017-12-11T03:24:02.892Z,97871.94
2017-12-11T03:26:31.211Z,97874.07
2017-12-11T03:28:59.553Z,97883.42
2017-12-11T03:31:27.919Z,97891.32
2017-12-11T03:33:56.253Z,97885.20
2017-12-11T03:36:24.593Z,97894.19
2017-12-11T03:38:53.258Z,97898.02
2017-12-11T03:41:21.584Z,97917.81
2017-12-11T03:43:49.937Z,97928.04
2017-12-11T03:46:18.270Z,97935.63
2017-12-11T03:48:47.384Z,97951.87
2017-12-11T03:51:15.730Z,97952.16
2017-12-11T03:53:45.906Z,97970.30
2017-12-11T03:56:14.231Z,97978.42
2017-12-11T03:58:42.556Z,97988.34
2017-12-11T04:01:10.970Z,97989.03
2017-12-11T04:03:40.060Z,97990.77
2017-12-11T04:06:08.398Z,98004.63
2017-12-11T04:08:36.769Z,98010.88
2017-12-11T04:11:05.102Z,98029.33
2017-12-11T04:13:33.452Z,98031.10
2017-12-11T04:16:02.209Z,98040.89
2017-12-11T04:18:30.559Z,98048.73
2017-12-11T04:20:59.654Z,98057.54
2017-12-11T04:23:29.081Z,98069.30
2017-12-11T04:25:57.404Z,98082.63
2017-12-11T04:28:25.737Z,98078.09
2017-12-11T04:30:54.834Z,98070.21
2017-12-11T04:33:23.943Z,98078.19
2017-12-11T04:35:52.251Z,98083.09
2017-12-11T04:38:21.537Z,98109.44
2017-12-11T04:40:49.884Z,98130.90
2017-12-11T04:43:18.227Z,98165.92
2017-12-11T04:45:46.865Z,98192.24
2017-12-11T04:48:15.943Z,98185.45
2017-12-11T04:50:44.259Z,98201.50
2017-12-11T04:53:12.906Z,98242.59
2017-12-11T04:55:41.249Z,98280.88
2017-12-11T04:58:09.556Z,98268.84
2017-12-11T05:00:37.951Z,98291.05
2017-12-11T05:03:06.275Z,98331.16
2017-12-11T05:05:34.634Z,98332.87
2017-12-11T05:08:03.986Z,98341.69
2017-12-11T05:10:32.303Z,98360.56
2017-12-11T05:13:00.637Z,98367.70
2017-12-11T05:15:28.979Z,98382.95
2017-12-11T05:17:57.294Z,98398.59
2017-12-11T05:20:25.644Z,98382.11
2017-12-11T05:22:54.038Z,98383.09
2017-12-11T05:25:22.669Z,98383.08
2017-12-11T05:27:51.761Z,98376.17
2017-12-11T05:30:21.372Z,98385.98
2017-12-11T05:32:50.473Z,98388.62
2017-12-11T05:35:19.569Z,98385.52
2017-12-11T05:37:48.732Z,98378.73
2017-12-11T05:40:17.045Z,98384.39
2017-12-11T05:42:46.186Z,98368.80
2017-12-11T05:45:14.591Z,98364.02
2017-12-11T05:47:42.930Z,98361.11
2017-12-11T05:50:11.252Z,98327.52
2017-12-11T05:52:39.945Z,98306.30
2017-12-11T05:55:22.691Z,98299.48
2017-12-11T05:57:51.062Z,98311.69
2017-12-11T06:00:19.404Z,98307.14
2017-12-11T06:02:47.705Z,98297.73
2017-12-11T06:05:17.064Z,98270.64
2017-12-11T06:07:45.373Z,98269.35
2017-12-11T06:10:13.682Z,98246.61
2017-12-11T06:12:42.626Z,98222.33
2017-12-11T06:15:11.743Z,98221.17
2017-12-11T06:17:50.769Z,98228.52
2017-12-11T06:20:19.070Z,98271.53
2017-12-11T06:22:47.429Z,98321.10
2017-12-11T06:25:15.793Z,98337.88
2017-12-11T06:27:44.145Z,98349.57
2017-12-11T06:30:12.442Z,98359.12
2017-12-11T06:32:41.046Z,98379.34
2017-12-11T06:35:09.381Z,98387.63
2017-12-11T06:37:37.695Z,98392.11
2017-12-11T06:40:06.520Z,98394.06
2017-12-11T06:42:35.677Z,98384.78
2017-12-11T06:45:03.974Z,98390.13
2017-12-11T06:47:33.152Z,98393.64
2017-12-11T06:50:01.505Z,98401.41
2017-12-11T06:52:29.845Z,98406.23
2017-12-11T06:54:59.171Z,98405.14
2017-12-11T06:57:27.476Z,98409.54
2017-12-11T06:59:55.831Z,98404.91
2017-12-11T07:02:24.232Z,98393.01
2017-12-11T07:04:52.547Z,98396.39
2017-12-11T07:07:21.659Z,98399.17
2017-12-11T07:09:50.260Z,98389.52
2017-12-11T07:12:18.594Z,98385.30
2017-12-11T07:14:46.915Z,98384.06
2017-12-11T07:17:15.857Z,98389.15
2017-12-11T07:19:44.187Z,98375.38
2017-12-11T07:22:12.511Z,98382.81
2017-12-11T07:24:40.889Z,98390.85
2017-12-11T07:27:09.239Z,98392.42
2017-12-11T07:29:37.567Z,98404.91
2017-12-11T07:32:05.922Z,98417.85
2017-12-11T07:34:34.265Z,98419.15
2017-12-11T07:37:02.597Z,98449.38
2017-12-11T07:39:30.990Z,98451.16
2017-12-11T07:42:00.104Z,98455.50
2017-12-11T07:44:28.438Z,98456.44
2017-12-11T07:46:56.796Z,98476.31
2017-12-11T07:49:25.093Z,98490.78
2017-12-11T07:51:54.225Z,98486.34
2017-12-11T07:54:23.578Z,98477.02
2017-12-11T07:56:51.921Z,98466.84
2017-12-11T07:59:20.316Z,98460.89
2017-12-11T08:01:48.744Z,98458.89
2017-12-11T08:04:17.045Z,98467.25
2017-12-11T08:06:46.146Z,98483.23
2017-12-11T08:09:15.269Z,98487.98
2017-12-11T08:11:43.612Z,98482.71
2017-12-11T08:14:11.959Z,98469.12
2017-12-11T08:16:41.817Z,98460.89
2017-12-11T08:19:10.152Z,98460.90
2017-12-11T08:21:38.501Z,98472.28
2017-12-11T08:24:07.351Z,98466.77
2017-12-11T08:26:36.459Z,98461.98
2017-12-11T08:29:05.533Z,98463.31
2017-12-11T08:31:34.339Z,98464.41
2017-12-11T08:34:02.689Z,98472.69
2017-12-11T08:36:30.990Z,98485.39
2017-12-11T08:39:00.081Z,98488.78
2017-12-11T08:41:29.199Z,98500.41
2017-12-11T08:43:57.521Z,98496.73
2017-12-11T08:46:26.044Z,98510.80
2017-12-11T08:48:54.411Z,98524.03
2017-12-11T08:51:22.754Z,98518.96
2017-12-11T08:53:51.094Z,98525.96
2017-12-11T08:56:19.413Z,98534.91
2017-12-11T08:58:47.732Z,98537.53
2017-12-11T09:01:16.928Z,98539.30
2017-12-11T09:03:46.029Z,98544.98
2017-12-11T09:06:15.101Z,98544.34
2017-12-11T09:08:44.208Z,98556.20
2017-12-11T09:11:12.568Z,98576.30
2017-12-11T09:13:40.921Z,98563.78
2017-12-11T09:16:09.269Z,98548.22
2017-12-11T09:18:37.622Z,98545.50
2017-12-11T09:21:05.981Z,98556.16
2017-12-11T09:23:34.334Z,98559.81
2017-12-11T09:26:02.693Z,98566.28
2017-12-11T09:28:31.035Z,98573.39
2017-12-11T09:30:59.946Z,98583.30
2017-12-11T09:33:29.043Z,98592.80
2017-12-11T09:35:57.354Z,98569.68
2017-12-11T09:38:25.690Z,98572.95
2017-12-11T09:40:54.828Z,98576.93
2017-12-11T09:43:23.191Z,98594.73
2017-12-11T09:45:51.792Z,98611.21
2017-12-11T09:48:20.134Z,98609.96
2017-12-11T09:50:48.466Z,98603.39
2017-12-11T09:53:16.984Z,98579.09
2017-12-11T09:55:45.286Z,98563.42
2017-12-11T09:58:14.388Z,98563.75
2017-12-11T10:00:42.798Z,98566.64
2017-12-11T10:03:11.111Z,98548.16
2017-12-11T10:05:39.464Z,98555.85
2017-12-11T10:08:07.835Z,98571.62
2017-12-11T10:10:36.174Z,98552.50
2017-12-11T10:13:05.318Z,98542.12
2017-12-11T10:15:33.891Z,98533.98
2017-12-11T10:18:02.203Z,98539.46
2017-12-11T10:20:31.341Z,98551.52
2017-12-11T10:23:00.113Z,98564.56
2017-12-11T10:25:29.204Z,98559.17
2017-12-11T10:27:57.559Z,98548.75
2017-12-11T10:30:25.902Z,98549.20
2017-12-11T10:32:54.251Z,98551.98
2017-12-11T10:35:22.576Z,98530.63
2017-12-11T10:37:51.144Z,98536.16
2017-12-11T10:40:19.501Z,98534.30
2017-12-11T10:42:47.831Z,98530.78
2017-12-11T10:45:16.452Z,98553.53
2017-12-11T10:47:45.582Z,98550.08
2017-12-11T10:50:13.921Z,98556.91
2017-12-11T10:52:43.090Z,98571.50
2017-12-11T10:55:11.399Z,98566.00
2017-12-11T10:57:39.750Z,98561.00
2017-12-11T11:00:08.572Z,98565.77
2017-12-11T11:02:37.683Z,98570.52
2017-12-11T11:05:06.028Z,98561.30
2017-12-11T11:07:35.254Z,98559.33
2017-12-11T11:10:03.852Z,98572.12
2017-12-11T11:12:32.223Z,98570.16
2017-12-11T11:15:00.617Z,98568.55
2017-12-11T11:17:28.951Z,98568.86
2017-12-11T11:19:57.302Z,98574.16
2017-12-11T11:22:26.178Z,98570.77
2017-12-11T11:24:54.550Z,98569.92
2017-12-11T11:27:22.901Z,98573.77
2017-12-11T11:29:51.317Z,98564.24
2017-12-11T11:32:19.753Z,98550.64
2017-12-11T11:34:48.187Z,98547.34
2017-12-11T11:37:16.966Z,98554.49
2017-12-11T11:39:45.318Z,98534.73
2017-12-11T11:42:13.664Z,98535.15
2017-12-11T11:44:43.117Z,98513.27
2017-12-11T11:47:11.463Z,98509.36
2017-12-11T11:49:40.589Z,98506.70
2017-12-11T11:52:09.018Z,98508.00
2017-12-11T11:54:38.146Z,98505.93
2017-12-11T11:57:06.487Z,98507.83
2017-12-11T11:59:34.910Z,98510.00
2017-12-11T12:02:03.234Z,98504.87
2017-12-11T12:04:31.624Z,98523.03
2017-12-11T12:07:00.668Z,98512.50
2017-12-11T12:09:29.038Z,98526.71
2017-12-11T12:11:57.393Z,98512.70
2017-12-11T12:14:26.026Z,98515.59
2017-12-11T12:16:54.379Z,98531.52
2017-12-11T12:19:22.698Z,98509.38
2017-12-11T12:21:51.040Z,98499.98
2017-12-11T12:24:19.385Z,98499.98
2017-12-11T12:26:47.706Z,98494.76
2017-12-11T12:29:16.356Z,98468.20
2017-12-11T12:31:44.850Z,98484.70
2017-12-11T12:34:13.237Z,98481.83
2017-12-11T12:36:41.602Z,98472.61
2017-12-11T12:39:10.749Z,98471.55
2017-12-11T12:41:39.101Z,98469.15
2017-12-11T12:44:07.490Z,98466.01
2017-12-11T12:46:36.018Z,98474.06
2017-12-11T12:49:04.358Z,98462.46
2017-12-11T12:51:33.356Z,98445.50
2017-12-11T12:54:01.720Z,98430.55
2017-12-11T12:56:30.064Z,98446.56
2017-12-11T12:58:58.459Z,98430.59
2017-12-11T13:01:26.823Z,98414.02
2017-12-11T13:03:55.182Z,98402.47
2017-12-11T13:06:23.581Z,98412.98
2017-12-11T13:08:51.948Z,98414.27
2017-12-11T13:11:20.280Z,98407.22
2017-12-11T13:13:49.273Z,98408.40
2017-12-11T13:16:17.593Z,98395.16
2017-12-11T13:18:46.899Z,98384.52
2017-12-11T13:21:15.342Z,98378.06
2017-12-11T13:23:44.459Z,98370.05
2017-12-11T13:26:12.938Z,98365.21
2017-12-11T13:28:41.590Z,98358.06
2017-12-11T13:31:09.962Z,98355.77
2017-12-11T13:33:38.320Z,98346.75
2017-12-11T13:36:12.641Z,98335.44
2017-12-11T13:38:41.746Z,98337.09
2017-12-11T13:41:10.242Z,98335.59
2017-12-11T13:43:38.657Z,98325.27
2017-12-11T13:46:07.028Z,98323.92
2017-12-11T13:48:35.405Z,98318.59
2017-12-11T13:51:03.818Z,98311.22
2017-12-11T13:53:32.166Z,98298.02
2017-12-11T13:56:00.486Z,98306.26
2017-12-11T13:58:30.031Z,98284.94
2017-12-11T14:00:58.405Z,98269.04
2017-12-11T14:03:26.723Z,98261.66
2017-12-11T14:05:55.535Z,98270.78
2017-12-11T14:08:23.898Z,98265.52
2017-12-11T14:10:52.282Z,98254.36
2017-12-11T14:13:20.639Z,98242.97
2017-12-11T14:15:49.037Z,98235.22
2017-12-11T14:18:17.359Z,98231.27
2017-12-11T14:20:46.720Z,98243.54
2017-12-11T14:23:15.093Z,98246.41
2017-12-11T14:25:43.415Z,98249.97
2017-12-11T14:28:12.614Z,98251.86
2017-12-11T14:30:40.990Z,98258.52
2017-12-11T14:33:09.341Z,98260.14
2017-12-11T14:35:38.496Z,98253.55
2017-12-11T14:38:06.854Z,98254.31
2017-12-11T14:40:35.222Z,98270.48
2017-12-11T14:43:04.260Z,98260.98
2017-12-11T14:45:32.591Z,98275.65
2017-12-11T14:48:01.681Z,98294.49
2017-12-11T14:50:30.854Z,98321.70
2017-12-11T14:52:59.233Z,98333.43
2017-12-11T14:55:27.586Z,98335.23
2017-12-11T14:57:55.961Z,98325.96
2017-12-11T15:00:24.364Z,98323.28
2017-12-11T15:02:52.717Z,98339.27
2017-12-11T15:05:21.327Z,98347.61
2017-12-11T15:07:49.666Z,98347.47
2017-12-11T15:10:18.277Z,98346.59
2017-12-11T15:12:46.630Z,98328.44
2017-12-11T15:15:15.035Z,98334.41
2017-12-11T15:17:43.385Z,98343.23
2017-12-11T15:20:12.017Z,98317.72
2017-12-11T15:22:40.401Z,98307.92
2017-12-11T15:25:08.795Z,98295.49
2017-12-11T15:27:37.708Z,98309.25
2017-12-11T15:30:06.832Z,98317.28
2017-12-11T15:32:35.147Z,98301.93
2017-12-11T15:35:03.483Z,98303.90
2017-12-11T15:37:31.807Z,98301.39
2017-12-11T15:40:00.145Z,98287.38
2017-12-11T15:42:28.540Z,98294.25
2017-12-11T15:44:56.883Z,98305.66
2017-12-11T15:47:25.223Z,98298.67
2017-12-11T15:49:53.790Z,98295.52
2017-12-11T15:52:22.129Z,98297.66
2017-12-11T15:54:50.460Z,98304.57
2017-12-11T15:57:19.269Z,98292.09
2017-12-11T15:59:47.597Z,98297.77
2017-12-11T16:02:15.934Z,98310.52
2017-12-11T16:04:45.030Z,98314.30
2017-12-11T16:07:14.135Z,98295.65
2017-12-11T16:09:43.209Z,98266.28
2017-12-11T16:12:12.635Z,98255.70
2017-12-11T16:14:41.751Z,98242.77
2017-12-11T16:17:10.099Z,98227.45
2017-12-11T16:19:39.336Z,98213.14
2017-12-11T16:22:07.692Z,98215.04
2017-12-11T16:24:36.064Z,98198.97
2017-12-11T16:27:04.478Z,98190.27
2017-12-11T16:29:32.864Z,98193.83
2017-12-11T16:32:02.001Z,98188.04
2017-12-11T16:34:30.988Z,98190.58
2017-12-11T16:36:59.402Z,98171.42
2017-12-11T16:39:27.751Z,98171.52
2017-12-11T16:41:56.095Z,98159.94
2017-12-11T16:44:24.397Z,98158.92
2017-12-11T16:46:52.723Z,98148.34
2017-12-11T16:49:21.057Z,98162.62
2017-12-11T16:51:50.908Z,98160.22
2017-12-11T16:54:20.021Z,98162.06
2017-12-11T16:56:48.488Z,98158.77
2017-12-11T16:59:16.833Z,98167.09
2017-12-11T17:01:45.167Z,98133.09
2017-12-11T17:04:13.506Z,98142.41
2017-12-11T17:06:42.579Z,98129.30
2017-12-11T17:09:10.927Z,98158.83
2017-12-11T17:11:39.676Z,98174.83
2017-12-11T17:14:08.781Z,98147.90
2017-12-11T17:16:37.115Z,98127.27
2017-12-11T17:19:06.159Z,98126.72
2017-12-11T17:21:34.490Z,98134.70
2017-12-11T17:24:02.874Z,98138.21
2017-12-11T17:26:31.233Z,98129.53
2017-12-11T17:28:59.560Z,98143.33
2017-12-11T17:31:27.904Z,98166.39
2017-12-11T17:33:56.271Z,98166.95
2017-12-11T17:36:24.590Z,98178.21
2017-12-11T17:38:53.678Z,98195.51
2017-12-11T17:41:22.366Z,98189.46
2017-12-11T17:43:51.458Z,98197.13
2017-12-11T17:46:19.767Z,98196.95
2017-12-11T17:48:48.382Z,98183.23
2017-12-11T17:51:16.700Z,98177.20
2017-12-11T17:53:45.050Z,98177.80
2017-12-11T17:56:13.410Z,98166.15
2017-12-11T17:58:47.838Z,98166.16
2017-12-11T18:01:16.296Z,98157.72
2017-12-11T18:03:44.618Z,98157.13
2017-12-11T18:06:12.980Z,98143.09
2017-12-11T18:08:41.307Z,98125.90
2017-12-11T18:11:10.419Z,98130.38
2017-12-11T18:13:38.780Z,98131.75
2017-12-11T18:16:07.922Z,98131.30
2017-12-11T18:18:36.366Z,98126.36
2017-12-11T18:21:05.494Z,98126.91
2017-12-11T18:23:34.411Z,98129.41
2017-12-11T18:26:02.804Z,98131.84
2017-12-11T18:28:31.236Z,98143.33
2017-12-11T18:30:59.614Z,98140.91
2017-12-11T18:33:27.975Z,98152.05
2017-12-11T18:35:56.342Z,98140.38
2017-12-11T18:38:25.508Z,98153.60
2017-12-11T18:40:54.088Z,98157.53
2017-12-11T18:43:22.444Z,98151.91
2017-12-11T18:45:50.982Z,98155.23
2017-12-11T18:48:19.340Z,98160.69
2017-12-11T18:50:47.668Z,98167.14
2017-12-11T18:53:16.012Z,98166.23
2017-12-11T18:55:44.315Z,98162.28
2017-12-11T18:58:12.636Z,98171.86
2017-12-11T19:00:41.389Z,98172.13
2017-12-11T19:03:10.594Z,98166.48
2017-12-11T19:05:38.936Z,98163.17
2017-12-11T19:08:08.594Z,98162.44
2017-12-11T19:10:37.042Z,98152.19
2017-12-11T19:13:05.526Z,98143.86
2017-12-11T19:15:33.903Z,98135.40
2017-12-11T19:18:02.265Z,98134.03
2017-12-11T19:20:30.602Z,98125.09
2017-12-11T19:22:58.945Z,98133.36
2017-12-11T19:25:27.282Z,98122.67
2017-12-11T19:27:55.626Z,98134.19
2017-12-11T19:30:24.151Z,98130.67
2017-12-11T19:32:52.564Z,98142.42
2017-12-11T19:35:21.072Z,98154.11
2017-12-11T19:37:51.678Z,98153.05
2017-12-11T19:40:19.979Z,98152.83
2017-12-11T19:42:48.310Z,98169.19
2017-12-11T19:45:16.673Z,98152.41
2017-12-11T19:47:45.005Z,98156.92
2017-12-11T19:50:13.324Z,98159.73
2017-12-11T19:52:42.278Z,98152.09
2017-12-11T19:55:10.659Z,98154.84
2017-12-11T19:57:39.011Z,98147.41
2017-12-11T20:00:08.124Z,98158.55
2017-12-11T20:02:36.574Z,98172.04
2017-12-11T20:05:04.927Z,98163.14
2017-12-11T20:07:33.281Z,98170.22
2017-12-11T20:10:01.612Z,98156.53
2017-12-11T20:12:29.920Z,98171.85
2017-12-11T20:14:59.319Z,98155.78
2017-12-11T20:17:27.659Z,98152.80
2017-12-11T20:19:55.992Z,98156.36
2017-12-11T20:22:24.351Z,98153.22
2017-12-11T20:24:52.772Z,98153.66
2017-12-11T20:27:21.109Z,98148.73
2017-12-11T20:29:50.225Z,98150.70
2017-12-11T20:32:18.551Z,98154.60
2017-12-11T20:34:46.859Z,98152.02
2017-12-11T20:37:16.090Z,98148.70
2017-12-11T20:39:47.024Z,98136.12
2017-12-11T20:42:16.374Z,98147.77
2017-12-11T20:44:45.492Z,98149.58
2017-12-11T20:47:13.793Z,98140.05
2017-12-11T20:49:42.189Z,98144.06
2017-12-11T20:52:10.875Z,98147.82
2017-12-11T20:54:39.305Z,98129.06
2017-12-11T20:57:08.424Z,98120.80
2017-12-11T20:59:37.022Z,98136.99
2017-12-11T21:02:05.364Z,98139.55
2017-12-11T21:04:34.473Z,98130.45
2017-12-11T21:07:03.597Z,98126.77
2017-12-11T21:09:31.940Z,98121.94
2017-12-11T21:12:01.105Z,98126.09
2017-12-11T21:14:29.481Z,98111.83
2017-12-11T21:16:57.786Z,98118.39
2017-12-11T21:19:26.132Z,98121.46
2017-12-11T21:21:54.750Z,98126.25
2017-12-11T21:24:23.129Z,98124.75
2017-12-11T21:26:51.453Z,98116.42
2017-12-11T21:29:20.066Z,98121.08
2017-12-11T21:31:48.432Z,98132.47
2017-12-11T21:34:16.829Z,98126.95
2017-12-11T21:36:45.987Z,98135.05
2017-12-11T21:39:14.345Z,98131.48
2017-12-11T21:41:42.697Z,98120.25
2017-12-11T21:44:11.574Z,98125.89
2017-12-11T21:46:39.902Z,98130.76
2017-12-11T21:49:08.997Z,98136.97
2017-12-11T21:51:37.589Z,98120.56
2017-12-11T21:54:05.967Z,98137.56
2017-12-11T21:56:34.296Z,98149.52
2017-12-11T21:59:02.691Z,98148.03
2017-12-11T22:01:31.815Z,98127.29
2017-12-11T22:04:00.155Z,98123.72
2017-12-11T22:06:29.118Z,98116.45
2017-12-11T22:08:57.487Z,98129.82
2017-12-11T22:11:25.868Z,98130.44
2017-12-11T22:13:54.242Z,98147.81
2017-12-11T22:16:22.556Z,98144.53
2017-12-11T22:18:50.903Z,98149.22
2017-12-11T22:21:19.270Z,98144.69
2017-12-11T22:23:47.587Z,98141.66
2017-12-11T22:26:15.940Z,98154.84
2017-12-11T22:28:44.685Z,98155.17
2017-12-11T22:31:13.836Z,98145.14
2017-12-11T22:33:42.437Z,98159.45
2017-12-11T22:36:10.844Z,98147.32
2017-12-11T22:38:39.180Z,98149.70
2017-12-11T22:41:07.492Z,98151.39
2017-12-11T22:43:36.109Z,98146.43
2017-12-11T22:46:04.429Z,98137.12
2017-12-11T22:48:32.733Z,98131.58
2017-12-11T22:51:01.735Z,98123.76
2017-12-11T22:53:30.857Z,98131.50
2017-12-11T22:55:59.190Z,98127.73
2017-12-11T22:58:27.538Z,98141.08
2017-12-11T23:00:55.852Z,98148.17
2017-12-11T23:03:24.164Z,98130.59
2017-12-11T23:05:52.517Z,98135.91
2017-12-11T23:08:21.634Z,98135.02
2017-12-11T23:10:50.729Z,98126.33
2017-12-11T23:13:20.352Z,98126.77
2017-12-11T23:15:48.649Z,98121.62
2017-12-11T23:18:16.960Z,98130.84
2017-12-11T23:20:46.209Z,98129.28
2017-12-11T23:23:14.542Z,98127.02
2017-12-11T23:25:42.840Z,98131.42
2017-12-11T23:28:11.975Z,98130.17
2017-12-11T23:30:40.318Z,98132.05
2017-12-11T23:33:09.456Z,98140.06
2017-12-11T23:35:37.901Z,98139.11
2017-12-11T23:38:06.241Z,98135.08
2017-12-11T23:40:34.600Z,98139.38
2017-12-11T23:43:02.959Z,98148.23
2017-12-11T23:45:31.305Z,98144.22
2017-12-11T23:48:00.403Z,98139.67
2017-12-11T23:50:29.538Z,98141.36
2017-12-11T23:52:57.898Z,98146.63
2017-12-11T23:55:26.229Z,98140.70
2017-12-11T23:57:55.037Z,98135.58
